Time,TemperatureF,DewpointF,PressureIn,WindDirection,WindDirectionDegrees,WindSpeedMPH,WindSpeedGustMPH,Humidity,HourlyPrecipIn,Conditions,Clouds,dailyrainin,SoftwareType,DateUTC
2013-06-28 00:02:00,63.1,57.1,0.00,SSW,206,1.6,5.7,81,0.00,,,0.00,WUHU216CR1000,2013-06-28 07:02:00,
2013-06-28 00:07:00,60.8,56.5,0.00,SSW,193,1.2,5.7,86,0.00,,,0.00,WUHU216CR1000,2013-06-28 07:07:00,
2013-06-28 00:12:00,60.8,56.5,0.00,SSW,193,1.2,4.4,86,0.00,,,0.00,WUHU216CR1000,2013-06-28 07:12:00,
2013-06-28 00:17:00,60.8,56.5,0.00,SSW,193,1.2,4.4,86,0.00,,,0.00,WUHU216CR1000,2013-06-28 07:17:00,
2013-06-28 00:22:00,60.8,56.5,0.00,SSW,193,1.2,4.4,86,0.00,,,0.00,WUHU216CR1000,2013-06-28 07:22:00,
2013-06-28 00:27:00,60.8,56.5,0.00,SSW,193,1.2,4.4,86,0.00,,,0.00,WUHU216CR1000,2013-06-28 07:27:00,
2013-06-28 00:32:00,60.8,56.5,0.00,SSW,193,1.2,4.4,86,0.00,,,0.00,WUHU216CR1000,2013-06-28 07:32:00,
2013-06-28 00:37:00,60.8,56.5,0.00,SSW,193,1.2,4.4,86,0.00,,,0.00,WUHU216CR1000,2013-06-28 07:37:00,
2013-06-28 00:42:00,60.8,56.5,0.00,SSW,193,1.2,4.4,86,0.00,,,0.00,WUHU216CR1000,2013-06-28 07:42:00,
2013-06-28 00:47:00,60.8,56.5,0.00,SSW,193,1.2,4.4,86,0.00,,,0.00,WUHU216CR1000,2013-06-28 07:47:00,
2013-06-28 00:52:00,60.8,56.5,0.00,SSW,193,1.2,4.4,86,0.00,,,0.00,WUHU216CR1000,2013-06-28 07:52:00,
2013-06-28 00:57:00,60.8,56.5,0.00,SSW,193,1.2,4.4,86,0.00,,,0.00,WUHU216CR1000,2013-06-28 07:57:00,
2013-06-28 01:02:00,60.8,56.5,0.00,SSW,193,1.2,4.4,86,0.00,,,0.00,WUHU216CR1000,2013-06-28 08:02:00,
2013-06-28 01:07:00,59.7,56.1,0.00,SSW,199,1.2,4.4,88,0.00,,,0.00,WUHU216CR1000,2013-06-28 08:07:00,
2013-06-28 01:12:00,59.7,56.1,0.00,SSW,199,1.2,3.5,88,0.00,,,0.00,WUHU216CR1000,2013-06-28 08:12:00,
2013-06-28 01:17:00,59.7,56.1,0.00,SSW,199,1.2,3.5,88,0.00,,,0.00,WUHU216CR1000,2013-06-28 08:17:00,
2013-06-28 01:22:00,59.7,56.1,0.00,SSW,199,1.2,3.5,88,0.00,,,0.00,WUHU216CR1000,2013-06-28 08:22:00,
2013-06-28 01:27:00,59.7,56.1,0.00,SSW,199,1.2,3.5,88,0.00,,,0.00,WUHU216CR1000,2013-06-28 08:27:00,
2013-06-28 01:32:00,59.7,56.1,0.00,SSW,199,1.2,3.5,88,0.00,,,0.00,WUHU216CR1000,2013-06-28 08:32:00,
2013-06-28 01:37:00,59.7,56.1,0.00,SSW,199,1.2,3.5,88,0.00,,,0.00,WUHU216CR1000,2013-06-28 08:37:00,
2013-06-28 01:42:00,59.7,56.1,0.00,SSW,199,1.2,3.5,88,0.00,,,0.00,WUHU216CR1000,2013-06-28 08:42:00,
2013-06-28 01:47:00,59.7,56.1,0.00,SSW,199,1.2,3.5,88,0.00,,,0.00,WUHU216CR1000,2013-06-28 08:47:00,
2013-06-28 01:52:00,59.7,56.1,0.00,SSW,199,1.2,3.5,88,0.00,,,0.00,WUHU216CR1000,2013-06-28 08:52:00,
2013-06-28 01:57:00,59.7,56.1,0.00,SSW,199,1.2,3.5,88,0.00,,,0.00,WUHU216CR1000,2013-06-28 08:57:00,
2013-06-28 02:02:00,59.7,56.1,0.00,SSW,199,1.2,3.5,88,0.00,,,0.00,WUHU216CR1000,2013-06-28 09:02:00,
2013-06-28 02:07:00,58.9,55.7,0.00,South,171,0.4,3.5,89,0.00,,,0.00,WUHU216CR1000,2013-06-28 09:07:00,
2013-06-28 02:12:00,58.9,55.7,0.00,South,171,0.4,3.3,89,0.00,,,0.00,WUHU216CR1000,2013-06-28 09:12:00,
2013-06-28 02:17:00,58.9,55.7,0.00,South,171,0.4,3.3,89,0.00,,,0.00,WUHU216CR1000,2013-06-28 09:17:00,
2013-06-28 02:22:00,58.9,55.7,0.00,South,171,0.4,3.3,89,0.00,,,0.00,WUHU216CR1000,2013-06-28 09:22:00,
2013-06-28 02:27:00,58.9,55.7,0.00,South,171,0.4,3.3,89,0.00,,,0.00,WUHU216CR1000,2013-06-28 09:27:00,
2013-06-28 02:32:00,58.9,55.7,0.00,South,171,0.4,3.3,89,0.00,,,0.00,WUHU216CR1000,2013-06-28 09:32:00,
2013-06-28 02:37:00,58.9,55.7,0.00,South,171,0.4,3.3,89,0.00,,,0.00,WUHU216CR1000,2013-06-28 09:37:00,
2013-06-28 02:42:00,58.9,55.7,0.00,South,171,0.4,3.3,89,0.00,,,0.00,WUHU216CR1000,2013-06-28 09:42:00,
2013-06-28 02:47:00,58.9,55.7,0.00,South,171,0.4,3.3,89,0.00,,,0.00,WUHU216CR1000,2013-06-28 09:47:00,
2013-06-28 02:52:00,58.9,55.7,0.00,South,171,0.4,3.3,89,0.00,,,0.00,WUHU216CR1000,2013-06-28 09:52:00,
2013-06-28 02:57:00,58.9,55.7,0.00,South,171,0.4,3.3,89,0.00,,,0.00,WUHU216CR1000,2013-06-28 09:57:00,
2013-06-28 03:02:00,58.9,55.7,0.00,South,171,0.4,3.3,89,0.00,,,0.00,WUHU216CR1000,2013-06-28 10:02:00,
2013-06-28 03:07:00,57.8,55.1,0.00,SSW,196,0.3,3.3,91,0.00,,,0.00,WUHU216CR1000,2013-06-28 10:07:00,
2013-06-28 03:12:00,57.8,55.1,0.00,SSW,196,0.3,2.2,91,0.00,,,0.00,WUHU216CR1000,2013-06-28 10:12:00,
2013-06-28 03:17:00,57.8,55.1,0.00,SSW,196,0.3,2.2,91,0.00,,,0.00,WUHU216CR1000,2013-06-28 10:17:00,
2013-06-28 03:22:00,57.8,55.1,0.00,SSW,196,0.3,2.2,91,0.00,,,0.00,WUHU216CR1000,2013-06-28 10:22:00,
2013-06-28 03:27:00,57.8,55.1,0.00,SSW,196,0.3,2.2,91,0.00,,,0.00,WUHU216CR1000,2013-06-28 10:27:00,
2013-06-28 03:32:00,57.8,55.1,0.00,SSW,196,0.3,2.2,91,0.00,,,0.00,WUHU216CR1000,2013-06-28 10:32:00,
2013-06-28 03:37:00,57.8,55.1,0.00,SSW,196,0.3,2.2,91,0.00,,,0.00,WUHU216CR1000,2013-06-28 10:37:00,
2013-06-28 03:42:00,57.8,55.1,0.00,SSW,196,0.3,2.2,91,0.00,,,0.00,WUHU216CR1000,2013-06-28 10:42:00,
2013-06-28 03:47:00,57.8,55.1,0.00,SSW,196,0.3,2.2,91,0.00,,,0.00,WUHU216CR1000,2013-06-28 10:47:00,
2013-06-28 03:52:00,57.8,55.1,0.00,SSW,196,0.3,2.2,91,0.00,,,0.00,WUHU216CR1000,2013-06-28 10:52:00,
2013-06-28 03:57:00,57.8,55.1,0.00,SSW,196,0.3,2.2,91,0.00,,,0.00,WUHU216CR1000,2013-06-28 10:57:00,
2013-06-28 04:02:00,57.8,55.1,0.00,SSW,196,0.3,2.2,91,0.00,,,0.00,WUHU216CR1000,2013-06-28 11:02:00,
2013-06-28 04:07:00,56.7,54.3,0.00,ESE,119,0.2,2.2,92,0.00,,,0.00,WUHU216CR1000,2013-06-28 11:07:00,
2013-06-28 04:12:00,56.7,54.3,0.00,ESE,119,0.2,1.5,92,0.00,,,0.00,WUHU216CR1000,2013-06-28 11:12:00,
2013-06-28 04:17:00,56.7,54.3,0.00,ESE,119,0.2,1.5,92,0.00,,,0.00,WUHU216CR1000,2013-06-28 11:17:00,
2013-06-28 04:22:00,56.7,54.3,0.00,ESE,119,0.2,1.5,92,0.00,,,0.00,WUHU216CR1000,2013-06-28 11:22:00,
2013-06-28 04:27:00,56.7,54.3,0.00,ESE,119,0.2,1.5,92,0.00,,,0.00,WUHU216CR1000,2013-06-28 11:27:00,
2013-06-28 04:32:00,56.7,54.3,0.00,ESE,119,0.2,1.5,92,0.00,,,0.00,WUHU216CR1000,2013-06-28 11:32:00,
2013-06-28 04:37:00,56.7,54.3,0.00,ESE,119,0.2,1.5,92,0.00,,,0.00,WUHU216CR1000,2013-06-28 11:37:00,
2013-06-28 04:42:00,56.7,54.3,0.00,ESE,119,0.2,1.5,92,0.00,,,0.00,WUHU216CR1000,2013-06-28 11:42:00,
2013-06-28 04:47:00,56.7,54.3,0.00,ESE,119,0.2,1.5,92,0.00,,,0.00,WUHU216CR1000,2013-06-28 11:47:00,
2013-06-28 04:52:00,56.7,54.3,0.00,ESE,119,0.2,1.5,92,0.00,,,0.00,WUHU216CR1000,2013-06-28 11:52:00,
2013-06-28 04:57:00,56.7,54.3,0.00,ESE,119,0.2,1.5,92,0.00,,,0.00,WUHU216CR1000,2013-06-28 11:57:00,
2013-06-28 05:02:00,56.7,54.3,0.00,ESE,119,0.2,1.5,92,0.00,,,0.00,WUHU216CR1000,2013-06-28 12:02:00,
2013-06-28 05:07:00,56.4,54.2,0.00,ESE,109,0.1,1.5,92,0.00,,,0.00,WUHU216CR1000,2013-06-28 12:07:00,
2013-06-28 05:12:00,56.4,54.2,0.00,ESE,109,0.1,1.1,92,0.00,,,0.00,WUHU216CR1000,2013-06-28 12:12:00,
2013-06-28 05:17:00,56.4,54.2,0.00,ESE,109,0.1,1.1,92,0.00,,,0.00,WUHU216CR1000,2013-06-28 12:17:00,
2013-06-28 05:22:00,56.4,54.2,0.00,ESE,109,0.1,1.1,92,0.00,,,0.00,WUHU216CR1000,2013-06-28 12:22:00,
2013-06-28 05:27:00,56.4,54.2,0.00,ESE,109,0.1,1.1,92,0.00,,,0.00,WUHU216CR1000,2013-06-28 12:27:00,
2013-06-28 05:32:00,56.4,54.2,0.00,ESE,109,0.1,1.1,92,0.00,,,0.00,WUHU216CR1000,2013-06-28 12:32:00,
2013-06-28 05:37:00,56.4,54.2,0.00,ESE,109,0.1,1.1,92,0.00,,,0.00,WUHU216CR1000,2013-06-28 12:37:00,
2013-06-28 05:42:00,56.4,54.2,0.00,ESE,109,0.1,1.1,92,0.00,,,0.00,WUHU216CR1000,2013-06-28 12:42:00,
2013-06-28 05:47:00,56.4,54.2,0.00,ESE,109,0.1,1.1,92,0.00,,,0.00,WUHU216CR1000,2013-06-28 12:47:00,
2013-06-28 05:52:00,56.4,54.2,0.00,ESE,109,0.1,1.1,92,0.00,,,0.00,WUHU216CR1000,2013-06-28 12:52:00,
2013-06-28 05:57:00,56.4,54.2,0.00,ESE,109,0.1,1.1,92,0.00,,,0.00,WUHU216CR1000,2013-06-28 12:57:00,
2013-06-28 06:02:00,56.4,54.2,0.00,ESE,109,0.1,1.1,92,0.00,,,0.00,WUHU216CR1000,2013-06-28 13:02:00,
2013-06-28 06:07:00,55.2,53.1,0.00,SSE,150,0.3,1.5,93,0.00,,,0.00,WUHU216CR1000,2013-06-28 13:07:00,
2013-06-28 06:12:00,55.2,53.1,0.00,SSE,150,0.3,1.5,93,0.00,,,0.00,WUHU216CR1000,2013-06-28 13:12:00,
2013-06-28 06:17:00,55.2,53.1,0.00,SSE,150,0.3,1.5,93,0.00,,,0.00,WUHU216CR1000,2013-06-28 13:17:00,
2013-06-28 06:22:00,55.2,53.1,0.00,SSE,150,0.3,1.5,93,0.00,,,0.00,WUHU216CR1000,2013-06-28 13:22:00,
2013-06-28 06:27:00,55.2,53.1,0.00,SSE,150,0.3,1.5,93,0.00,,,0.00,WUHU216CR1000,2013-06-28 13:27:00,
2013-06-28 06:32:00,55.2,53.1,0.00,SSE,150,0.3,1.5,93,0.00,,,0.00,WUHU216CR1000,2013-06-28 13:32:00,
2013-06-28 06:37:00,55.2,53.1,0.00,SSE,150,0.3,1.5,93,0.00,,,0.00,WUHU216CR1000,2013-06-28 13:37:00,
2013-06-28 06:42:00,55.2,53.1,0.00,SSE,150,0.3,1.5,93,0.00,,,0.00,WUHU216CR1000,2013-06-28 13:42:00,
2013-06-28 06:47:00,55.2,53.1,0.00,SSE,150,0.3,1.5,93,0.00,,,0.00,WUHU216CR1000,2013-06-28 13:47:00,
2013-06-28 06:52:00,55.2,53.1,0.00,SSE,150,0.3,1.5,93,0.00,,,0.00,WUHU216CR1000,2013-06-28 13:52:00,
2013-06-28 06:57:00,55.2,53.1,0.00,SSE,150,0.3,1.5,93,0.00,,,0.00,WUHU216CR1000,2013-06-28 13:57:00,
2013-06-28 07:02:00,55.2,53.1,0.00,SSE,150,0.3,1.5,93,0.00,,,0.00,WUHU216CR1000,2013-06-28 14:02:00,
2013-06-28 07:07:00,60.9,59.1,0.00,SSE,159,0.3,2.6,94,0.00,,,0.00,WUHU216CR1000,2013-06-28 14:07:00,
2013-06-28 07:12:00,60.9,59.1,0.00,SSE,159,0.3,2.6,94,0.00,,,0.00,WUHU216CR1000,2013-06-28 14:12:00,
2013-06-28 07:17:00,60.9,59.1,0.00,SSE,159,0.3,2.6,94,0.00,,,0.00,WUHU216CR1000,2013-06-28 14:17:00,
2013-06-28 07:23:00,60.9,59.1,0.00,SSE,159,0.3,2.6,94,0.00,,,0.00,WUHU216CR1000,2013-06-28 14:23:00,
2013-06-28 07:28:00,60.9,59.1,0.00,SSE,159,0.3,2.6,94,0.00,,,0.00,WUHU216CR1000,2013-06-28 14:28:00,
2013-06-28 07:33:00,60.9,59.1,0.00,SSE,159,0.3,2.6,94,0.00,,,0.00,WUHU216CR1000,2013-06-28 14:33:00,
2013-06-28 07:38:00,60.9,59.1,0.00,SSE,159,0.3,2.6,94,0.00,,,0.00,WUHU216CR1000,2013-06-28 14:38:00,
2013-06-28 07:43:00,60.9,59.1,0.00,SSE,159,0.3,2.6,94,0.00,,,0.00,WUHU216CR1000,2013-06-28 14:43:00,
2013-06-28 07:48:00,60.9,59.1,0.00,SSE,159,0.3,2.6,94,0.00,,,0.00,WUHU216CR1000,2013-06-28 14:48:00,
2013-06-28 07:53:00,60.9,59.1,0.00,SSE,159,0.3,2.6,94,0.00,,,0.00,WUHU216CR1000,2013-06-28 14:53:00,
2013-06-28 07:58:00,60.9,59.1,0.00,SSE,159,0.3,2.6,94,0.00,,,0.00,WUHU216CR1000,2013-06-28 14:58:00,
2013-06-28 08:03:00,60.9,59.1,0.00,SSE,159,0.3,2.6,94,0.00,,,0.00,WUHU216CR1000,2013-06-28 15:03:00,
2013-06-28 08:08:00,68.7,63.0,0.00,North,353,0.4,2.6,82,0.00,,,0.00,WUHU216CR1000,2013-06-28 15:08:00,
2013-06-28 08:13:00,68.7,63.0,0.00,North,353,0.4,2.0,82,0.00,,,0.00,WUHU216CR1000,2013-06-28 15:13:00,
2013-06-28 08:18:00,68.7,63.0,0.00,North,353,0.4,2.0,82,0.00,,,0.00,WUHU216CR1000,2013-06-28 15:18:00,
2013-06-28 08:23:00,68.7,63.0,0.00,North,353,0.4,2.0,82,0.00,,,0.00,WUHU216CR1000,2013-06-28 15:23:00,
2013-06-28 08:28:00,68.7,63.0,0.00,North,353,0.4,2.0,82,0.00,,,0.00,WUHU216CR1000,2013-06-28 15:28:00,
2013-06-28 08:33:00,68.7,63.0,0.00,North,353,0.4,2.0,82,0.00,,,0.00,WUHU216CR1000,2013-06-28 15:33:00,
2013-06-28 08:38:00,68.7,63.0,0.00,North,353,0.4,2.0,82,0.00,,,0.00,WUHU216CR1000,2013-06-28 15:38:00,
2013-06-28 08:43:00,68.7,63.0,0.00,North,353,0.4,2.0,82,0.00,,,0.00,WUHU216CR1000,2013-06-28 15:43:00,
2013-06-28 08:48:00,68.7,63.0,0.00,North,353,0.4,2.0,82,0.00,,,0.00,WUHU216CR1000,2013-06-28 15:48:00,
2013-06-28 08:53:00,68.7,63.0,0.00,North,353,0.4,2.0,82,0.00,,,0.00,WUHU216CR1000,2013-06-28 15:53:00,
2013-06-28 08:58:00,68.7,63.0,0.00,North,353,0.4,2.0,82,0.00,,,0.00,WUHU216CR1000,2013-06-28 15:58:00,
2013-06-28 09:03:00,68.7,63.0,0.00,North,353,0.4,2.0,82,0.00,,,0.00,WUHU216CR1000,2013-06-28 16:03:00,
2013-06-28 09:08:00,75.7,69.9,0.00,SE,137,0.3,2.0,82,0.00,,,0.00,WUHU216CR1000,2013-06-28 16:08:00,
2013-06-28 09:13:00,75.7,69.9,0.00,SE,137,0.3,2.0,82,0.00,,,0.00,WUHU216CR1000,2013-06-28 16:13:00,
2013-06-28 09:18:00,75.7,69.9,0.00,SE,137,0.3,2.0,82,0.00,,,0.00,WUHU216CR1000,2013-06-28 16:18:00,
2013-06-28 09:23:00,75.7,69.9,0.00,SE,137,0.3,2.0,82,0.00,,,0.00,WUHU216CR1000,2013-06-28 16:23:00,
2013-06-28 09:28:00,75.7,69.9,0.00,SE,137,0.3,2.0,82,0.00,,,0.00,WUHU216CR1000,2013-06-28 16:28:00,
2013-06-28 09:33:00,75.7,69.9,0.00,SE,137,0.3,2.0,82,0.00,,,0.00,WUHU216CR1000,2013-06-28 16:33:00,
2013-06-28 09:38:00,75.7,69.9,0.00,SE,137,0.3,2.0,82,0.00,,,0.00,WUHU216CR1000,2013-06-28 16:38:00,
2013-06-28 09:43:00,75.7,69.9,0.00,SE,137,0.3,2.0,82,0.00,,,0.00,WUHU216CR1000,2013-06-28 16:43:00,
2013-06-28 09:48:00,75.7,69.9,0.00,SE,137,0.3,2.0,82,0.00,,,0.00,WUHU216CR1000,2013-06-28 16:48:00,
2013-06-28 09:53:00,75.7,69.9,0.00,SE,137,0.3,2.0,82,0.00,,,0.00,WUHU216CR1000,2013-06-28 16:53:00,
2013-06-28 09:58:00,75.7,61.0,0.00,SE,137,0.3,2.0,60,0.00,,,0.00,WUHU216CR1000,2013-06-28 16:58:00,
2013-06-28 10:03:00,75.7,61.0,0.00,SE,137,0.3,2.0,60,0.00,,,0.00,WUHU216CR1000,2013-06-28 17:03:00,
2013-06-28 10:08:00,79.9,62.8,0.00,ESE,107,1.4,4.8,56,0.00,,,0.00,WUHU216CR1000,2013-06-28 17:08:00,
2013-06-28 10:13:00,79.9,62.8,0.00,ESE,107,1.4,4.8,56,0.00,,,0.00,WUHU216CR1000,2013-06-28 17:13:00,
2013-06-28 10:18:00,79.9,62.8,0.00,ESE,107,1.4,4.8,56,0.00,,,0.00,WUHU216CR1000,2013-06-28 17:18:00,
2013-06-28 10:23:00,79.9,62.8,0.00,ESE,107,1.4,4.8,56,0.00,,,0.00,WUHU216CR1000,2013-06-28 17:23:00,
2013-06-28 10:28:00,79.9,62.8,0.00,ESE,107,1.4,4.8,56,0.00,,,0.00,WUHU216CR1000,2013-06-28 17:28:00,
2013-06-28 10:33:00,79.9,62.8,0.00,ESE,107,1.4,4.8,56,0.00,,,0.00,WUHU216CR1000,2013-06-28 17:33:00,
2013-06-28 10:38:00,79.9,62.8,0.00,ESE,107,1.4,4.8,56,0.00,,,0.00,WUHU216CR1000,2013-06-28 17:38:00,
2013-06-28 10:43:00,79.9,62.8,0.00,ESE,107,1.4,4.8,56,0.00,,,0.00,WUHU216CR1000,2013-06-28 17:43:00,
2013-06-28 10:48:00,79.9,62.8,0.00,ESE,107,1.4,4.8,56,0.00,,,0.00,WUHU216CR1000,2013-06-28 17:48:00,
2013-06-28 11:26:00,79.9,62.8,0.00,ESE,107,1.4,4.8,56,0.00,,,0.00,WUHU216CR1000,2013-06-28 18:26:00,
2013-06-28 11:31:00,79.9,62.8,0.00,ESE,107,1.4,4.8,56,0.00,,,0.00,WUHU216CR1000,2013-06-28 18:31:00,
2013-06-28 11:36:00,79.9,62.8,0.00,ESE,107,1.4,4.8,56,0.00,,,0.00,WUHU216CR1000,2013-06-28 18:36:00,
2013-06-28 11:41:00,79.9,62.8,0.00,ESE,107,1.4,4.8,56,0.00,,,0.00,WUHU216CR1000,2013-06-28 18:41:00,
2013-06-28 11:46:00,79.9,62.8,0.00,ESE,107,1.4,4.8,56,0.00,,,0.00,WUHU216CR1000,2013-06-28 18:46:00,
2013-06-28 11:51:00,79.9,62.8,0.00,ESE,107,1.4,4.8,56,0.00,,,0.00,WUHU216CR1000,2013-06-28 18:51:00,
2013-06-28 11:56:00,79.9,62.8,0.00,ESE,107,1.4,4.8,56,0.00,,,0.00,WUHU216CR1000,2013-06-28 18:56:00,
2013-06-28 12:01:00,79.9,62.8,0.00,ESE,107,1.4,4.8,56,0.00,,,0.00,WUHU216CR1000,2013-06-28 19:01:00,
2013-06-28 12:06:00,86.6,64.6,0.00,SW,230,4.0,8.8,48,0.00,,,0.00,WUHU216CR1000,2013-06-28 19:06:00,
2013-06-28 12:11:00,86.6,64.6,0.00,SW,230,4.0,8.8,48,0.00,,,0.00,WUHU216CR1000,2013-06-28 19:11:00,
2013-06-28 12:16:00,86.6,64.6,0.00,SW,230,4.0,8.8,48,0.00,,,0.00,WUHU216CR1000,2013-06-28 19:16:00,
2013-06-28 12:21:00,86.6,64.6,0.00,SW,230,4.0,8.8,48,0.00,,,0.00,WUHU216CR1000,2013-06-28 19:21:00,
2013-06-28 12:26:00,86.6,64.6,0.00,SW,230,4.0,8.8,48,0.00,,,0.00,WUHU216CR1000,2013-06-28 19:26:00,
2013-06-28 12:31:00,86.6,64.6,0.00,SW,230,4.0,8.8,48,0.00,,,0.00,WUHU216CR1000,2013-06-28 19:31:00,
2013-06-28 12:36:00,86.6,64.6,0.00,SW,230,4.0,8.8,48,0.00,,,0.00,WUHU216CR1000,2013-06-28 19:36:00,
2013-06-28 12:41:00,86.6,64.6,0.00,SW,230,4.0,8.8,48,0.00,,,0.00,WUHU216CR1000,2013-06-28 19:41:00,
2013-06-28 12:46:00,86.6,64.6,0.00,SW,230,4.0,8.8,48,0.00,,,0.00,WUHU216CR1000,2013-06-28 19:46:00,
2013-06-28 12:51:00,86.6,64.6,0.00,SW,230,4.0,8.8,48,0.00,,,0.00,WUHU216CR1000,2013-06-28 19:51:00,
2013-06-28 12:56:00,86.6,64.6,0.00,SW,230,4.0,8.8,48,0.00,,,0.00,WUHU216CR1000,2013-06-28 19:56:00,
2013-06-28 13:01:00,86.6,64.6,0.00,SW,230,4.0,8.8,48,0.00,,,0.00,WUHU216CR1000,2013-06-28 20:01:00,
2013-06-28 13:06:00,83.4,62.7,0.00,SSW,205,4.5,10.3,50,0.00,,,0.00,WUHU216CR1000,2013-06-28 20:06:00,
2013-06-28 13:11:00,83.4,62.7,0.00,SSW,205,4.5,10.3,50,0.00,,,0.00,WUHU216CR1000,2013-06-28 20:11:00,
2013-06-28 13:16:00,83.4,62.7,0.00,SSW,205,4.5,10.3,50,0.00,,,0.00,WUHU216CR1000,2013-06-28 20:16:00,
2013-06-28 13:21:00,83.4,62.7,0.00,SSW,205,4.5,10.3,50,0.00,,,0.00,WUHU216CR1000,2013-06-28 20:21:00,
2013-06-28 13:26:00,83.4,62.7,0.00,SSW,205,4.5,10.3,50,0.00,,,0.00,WUHU216CR1000,2013-06-28 20:26:00,
2013-06-28 13:31:00,83.4,62.7,0.00,SSW,205,4.5,10.3,50,0.00,,,0.00,WUHU216CR1000,2013-06-28 20:31:00,
2013-06-28 13:36:00,83.4,62.7,0.00,SSW,205,4.5,10.3,50,0.00,,,0.00,WUHU216CR1000,2013-06-28 20:36:00,
2013-06-28 13:41:00,83.4,62.7,0.00,SSW,205,4.5,10.3,50,0.00,,,0.00,WUHU216CR1000,2013-06-28 20:41:00,
2013-06-28 13:46:00,83.4,62.7,0.00,SSW,205,4.5,10.3,50,0.00,,,0.00,WUHU216CR1000,2013-06-28 20:46:00,
2013-06-28 13:51:00,83.4,62.7,0.00,SSW,205,4.5,10.3,50,0.00,,,0.00,WUHU216CR1000,2013-06-28 20:51:00,
2013-06-28 13:56:00,83.4,62.7,0.00,SSW,205,4.5,10.3,50,0.00,,,0.00,WUHU216CR1000,2013-06-28 20:56:00,
2013-06-28 14:01:00,83.4,62.7,0.00,SSW,205,4.5,10.3,50,0.00,,,0.00,WUHU216CR1000,2013-06-28 21:01:00,
2013-06-28 14:06:00,84.1,66.7,0.00,SSW,198,4.2,13.6,56,0.00,,,0.00,WUHU216CR1000,2013-06-28 21:06:00,
2013-06-28 14:11:00,84.1,66.7,0.00,SSW,198,4.2,13.6,56,0.00,,,0.00,WUHU216CR1000,2013-06-28 21:11:00,
2013-06-28 14:16:00,84.1,66.7,0.00,SSW,198,4.2,13.6,56,0.00,,,0.00,WUHU216CR1000,2013-06-28 21:16:00,
2013-06-28 14:21:00,84.1,66.7,0.00,SSW,198,4.2,13.6,56,0.00,,,0.00,WUHU216CR1000,2013-06-28 21:21:00,
2013-06-28 14:26:00,84.1,66.7,0.00,SSW,198,4.2,13.6,56,0.00,,,0.00,WUHU216CR1000,2013-06-28 21:26:00,
2013-06-28 14:31:00,84.1,66.7,0.00,SSW,198,4.2,13.6,56,0.00,,,0.00,WUHU216CR1000,2013-06-28 21:31:00,
2013-06-28 14:36:00,84.1,66.7,0.00,SSW,198,4.2,13.6,56,0.00,,,0.00,WUHU216CR1000,2013-06-28 21:36:00,
2013-06-28 14:41:00,84.1,66.7,0.00,SSW,198,4.2,13.6,56,0.00,,,0.00,WUHU216CR1000,2013-06-28 21:41:00,
2013-06-28 14:46:00,84.1,66.7,0.00,SSW,198,4.2,13.6,56,0.00,,,0.00,WUHU216CR1000,2013-06-28 21:46:00,
2013-06-28 14:51:00,84.1,66.7,0.00,SSW,198,4.2,13.6,56,0.00,,,0.00,WUHU216CR1000,2013-06-28 21:51:00,
2013-06-28 14:56:00,84.1,66.7,0.00,SSW,198,4.2,13.6,56,0.00,,,0.00,WUHU216CR1000,2013-06-28 21:56:00,
2013-06-28 15:01:00,84.1,66.7,0.00,SSW,198,4.2,13.6,56,0.00,,,0.00,WUHU216CR1000,2013-06-28 22:01:00,
2013-06-28 15:06:00,83.8,62.6,0.00,SSW,192,3.7,13.6,49,0.00,,,0.00,WUHU216CR1000,2013-06-28 22:06:00,
2013-06-28 15:11:00,83.8,62.6,0.00,SSW,192,3.7,11.9,49,0.00,,,0.00,WUHU216CR1000,2013-06-28 22:11:00,
2013-06-28 15:16:00,83.8,62.6,0.00,SSW,192,3.7,11.9,49,0.00,,,0.00,WUHU216CR1000,2013-06-28 22:16:00,
2013-06-28 15:21:00,83.8,62.6,0.00,SSW,192,3.7,11.9,49,0.00,,,0.00,WUHU216CR1000,2013-06-28 22:21:00,
2013-06-28 15:26:00,83.8,62.6,0.00,SSW,192,3.7,11.9,49,0.00,,,0.00,WUHU216CR1000,2013-06-28 22:26:00,
2013-06-28 15:31:00,83.8,62.6,0.00,SSW,192,3.7,11.9,49,0.00,,,0.00,WUHU216CR1000,2013-06-28 22:31:00,
2013-06-28 15:36:00,83.8,62.6,0.00,SSW,192,3.7,11.9,49,0.00,,,0.00,WUHU216CR1000,2013-06-28 22:36:00,
2013-06-28 15:41:00,83.8,62.6,0.00,SSW,192,3.7,11.9,49,0.00,,,0.00,WUHU216CR1000,2013-06-28 22:41:00,
2013-06-28 15:46:00,83.8,62.6,0.00,SSW,192,3.7,11.9,49,0.00,,,0.00,WUHU216CR1000,2013-06-28 22:46:00,
2013-06-28 15:51:00,83.8,62.6,0.00,SSW,192,3.7,11.9,49,0.00,,,0.00,WUHU216CR1000,2013-06-28 22:51:00,
2013-06-28 15:56:00,83.8,62.6,0.00,SSW,192,3.7,11.9,49,0.00,,,0.00,WUHU216CR1000,2013-06-28 22:56:00,
2013-06-28 16:01:00,83.8,62.6,0.00,SSW,192,3.7,11.9,49,0.00,,,0.00,WUHU216CR1000,2013-06-28 23:01:00,
2013-06-28 16:06:00,83.1,61.7,0.00,SSW,207,5.2,16.2,49,0.00,,,0.00,WUHU216CR1000,2013-06-28 23:06:00,
2013-06-28 16:11:00,83.1,61.7,0.00,SSW,207,5.2,16.2,49,0.00,,,0.00,WUHU216CR1000,2013-06-28 23:11:00,
2013-06-28 16:16:00,83.1,61.7,0.00,SSW,207,5.2,16.2,49,0.00,,,0.00,WUHU216CR1000,2013-06-28 23:16:00,
2013-06-28 16:21:00,83.1,61.7,0.00,SSW,207,5.2,16.2,49,0.00,,,0.00,WUHU216CR1000,2013-06-28 23:21:00,
2013-06-28 16:26:00,83.1,61.7,0.00,SSW,207,5.2,16.2,49,0.00,,,0.00,WUHU216CR1000,2013-06-28 23:26:00,
2013-06-28 16:31:00,83.1,61.7,0.00,SSW,207,5.2,16.2,49,0.00,,,0.00,WUHU216CR1000,2013-06-28 23:31:00,
2013-06-28 16:36:00,83.1,61.7,0.00,SSW,207,5.2,16.2,49,0.00,,,0.00,WUHU216CR1000,2013-06-28 23:36:00,
2013-06-28 16:41:00,83.1,61.7,0.00,SSW,207,5.2,16.2,49,0.00,,,0.00,WUHU216CR1000,2013-06-28 23:41:00,
2013-06-28 16:46:00,83.1,61.7,0.00,SSW,207,5.2,16.2,49,0.00,,,0.00,WUHU216CR1000,2013-06-28 23:46:00,
2013-06-28 16:51:00,83.1,61.7,0.00,SSW,207,5.2,16.2,49,0.00,,,0.00,WUHU216CR1000,2013-06-28 23:51:00,
2013-06-28 16:56:00,83.1,61.7,0.00,SSW,207,5.2,16.2,49,0.00,,,0.00,WUHU216CR1000,2013-06-28 23:56:00,
2013-06-28 17:01:00,83.1,61.7,0.00,SSW,207,5.2,16.2,49,0.00,,,0.00,WUHU216CR1000,2013-06-29 00:01:00,
2013-06-28 17:06:00,86.4,63.4,0.00,South,185,2.7,16.2,46,0.00,,,0.00,WUHU216CR1000,2013-06-29 00:06:00,
2013-06-28 17:11:00,86.4,63.4,0.00,South,185,2.7,11.4,46,0.00,,,0.00,WUHU216CR1000,2013-06-29 00:11:00,
2013-06-28 17:16:00,86.4,63.4,0.00,South,185,2.7,11.4,46,0.00,,,0.00,WUHU216CR1000,2013-06-29 00:16:00,
2013-06-28 17:21:00,86.4,63.4,0.00,South,185,2.7,11.4,46,0.00,,,0.00,WUHU216CR1000,2013-06-29 00:21:00,
2013-06-28 17:26:00,86.4,63.4,0.00,South,185,2.7,11.4,46,0.00,,,0.00,WUHU216CR1000,2013-06-29 00:26:00,
2013-06-28 17:31:00,86.4,63.4,0.00,South,185,2.7,11.4,46,0.00,,,0.00,WUHU216CR1000,2013-06-29 00:31:00,
2013-06-28 17:36:00,86.4,63.4,0.00,South,185,2.7,11.4,46,0.00,,,0.00,WUHU216CR1000,2013-06-29 00:36:00,
2013-06-28 17:41:00,86.4,63.4,0.00,South,185,2.7,11.4,46,0.00,,,0.00,WUHU216CR1000,2013-06-29 00:41:00,
2013-06-28 17:46:00,86.4,63.4,0.00,South,185,2.7,11.4,46,0.00,,,0.00,WUHU216CR1000,2013-06-29 00:46:00,
2013-06-28 17:51:00,86.4,63.4,0.00,South,185,2.7,11.4,46,0.00,,,0.00,WUHU216CR1000,2013-06-29 00:51:00,
2013-06-28 17:56:00,86.4,63.4,0.00,South,185,2.7,11.4,46,0.00,,,0.00,WUHU216CR1000,2013-06-29 00:56:00,
2013-06-28 18:01:00,86.4,63.4,0.00,South,185,2.7,11.4,46,0.00,,,0.00,WUHU216CR1000,2013-06-29 01:01:00,
2013-06-28 18:06:00,88.7,61.5,0.00,SSW,196,3.3,11.4,40,0.00,,,0.00,WUHU216CR1000,2013-06-29 01:06:00,
2013-06-28 18:11:00,88.7,61.5,0.00,SSW,196,3.3,11.2,40,0.00,,,0.00,WUHU216CR1000,2013-06-29 01:11:00,
2013-06-28 18:16:00,88.7,61.5,0.00,SSW,196,3.3,11.2,40,0.00,,,0.00,WUHU216CR1000,2013-06-29 01:16:00,
2013-06-28 18:21:00,88.7,61.5,0.00,SSW,196,3.3,11.2,40,0.00,,,0.00,WUHU216CR1000,2013-06-29 01:21:00,
2013-06-28 18:26:00,88.7,61.5,0.00,SSW,196,3.3,11.2,40,0.00,,,0.00,WUHU216CR1000,2013-06-29 01:26:00,
2013-06-28 18:31:00,88.7,61.5,0.00,SSW,196,3.3,11.2,40,0.00,,,0.00,WUHU216CR1000,2013-06-29 01:31:00,
2013-06-28 18:36:00,88.7,61.5,0.00,SSW,196,3.3,11.2,40,0.00,,,0.00,WUHU216CR1000,2013-06-29 01:36:00,
2013-06-28 18:41:00,88.7,61.5,0.00,SSW,196,3.3,11.2,40,0.00,,,0.00,WUHU216CR1000,2013-06-29 01:41:00,
2013-06-28 18:46:00,88.7,61.5,0.00,SSW,196,3.3,11.2,40,0.00,,,0.00,WUHU216CR1000,2013-06-29 01:46:00,
2013-06-28 18:51:00,88.7,61.5,0.00,SSW,196,3.3,11.2,40,0.00,,,0.00,WUHU216CR1000,2013-06-29 01:51:00,
2013-06-28 18:56:00,88.7,61.5,0.00,SSW,196,3.3,11.2,40,0.00,,,0.00,WUHU216CR1000,2013-06-29 01:56:00,
2013-06-28 19:01:00,88.7,61.5,0.00,SSW,196,3.3,11.2,40,0.00,,,0.00,WUHU216CR1000,2013-06-29 02:01:00,
2013-06-28 19:06:00,91.2,60.3,0.00,SW,225,2.3,11.2,36,0.00,,,0.00,WUHU216CR1000,2013-06-29 02:06:00,
2013-06-28 19:11:00,91.2,60.3,0.00,SW,225,2.3,8.3,36,0.00,,,0.00,WUHU216CR1000,2013-06-29 02:11:00,
2013-06-28 19:16:00,91.2,60.3,0.00,SW,225,2.3,8.3,36,0.00,,,0.00,WUHU216CR1000,2013-06-29 02:16:00,
2013-06-28 19:21:00,91.2,60.3,0.00,SW,225,2.3,8.3,36,0.00,,,0.00,WUHU216CR1000,2013-06-29 02:21:00,
2013-06-28 19:26:00,91.2,60.3,0.00,SW,225,2.3,8.3,36,0.00,,,0.00,WUHU216CR1000,2013-06-29 02:26:00,
2013-06-28 19:31:00,91.2,60.3,0.00,SW,225,2.3,8.3,36,0.00,,,0.00,WUHU216CR1000,2013-06-29 02:31:00,
2013-06-28 19:36:00,91.2,60.3,0.00,SW,225,2.3,8.3,36,0.00,,,0.00,WUHU216CR1000,2013-06-29 02:36:00,
2013-06-28 19:41:00,91.2,60.3,0.00,SW,225,2.3,8.3,36,0.00,,,0.00,WUHU216CR1000,2013-06-29 02:41:00,
2013-06-28 19:46:00,91.2,60.3,0.00,SW,225,2.3,8.3,36,0.00,,,0.00,WUHU216CR1000,2013-06-29 02:46:00,
2013-06-28 19:51:00,91.2,60.3,0.00,SW,225,2.3,8.3,36,0.00,,,0.00,WUHU216CR1000,2013-06-29 02:51:00,
2013-06-28 19:56:00,91.2,60.3,0.00,SW,225,2.3,8.3,36,0.00,,,0.00,WUHU216CR1000,2013-06-29 02:56:00,
2013-06-28 20:01:00,91.2,60.3,0.00,SW,225,2.3,8.3,36,0.00,,,0.00,WUHU216CR1000,2013-06-29 03:01:00,
2013-06-28 20:06:00,85.0,62.8,0.00,SW,214,1.3,8.3,47,0.00,,,0.00,WUHU216CR1000,2013-06-29 03:06:00,
2013-06-28 20:11:00,85.0,62.8,0.00,SW,214,1.3,4.4,47,0.00,,,0.00,WUHU216CR1000,2013-06-29 03:11:00,
2013-06-28 20:16:00,85.0,62.8,0.00,SW,214,1.3,4.4,47,0.00,,,0.00,WUHU216CR1000,2013-06-29 03:16:00,
2013-06-28 20:21:00,85.0,62.8,0.00,SW,214,1.3,4.4,47,0.00,,,0.00,WUHU216CR1000,2013-06-29 03:21:00,
2013-06-28 20:26:00,85.0,62.8,0.00,SW,214,1.3,4.4,47,0.00,,,0.00,WUHU216CR1000,2013-06-29 03:26:00,
2013-06-28 20:31:00,85.0,62.8,0.00,SW,214,1.3,4.4,47,0.00,,,0.00,WUHU216CR1000,2013-06-29 03:31:00,
2013-06-28 20:36:00,85.0,62.8,0.00,SW,214,1.3,4.4,47,0.00,,,0.00,WUHU216CR1000,2013-06-29 03:36:00,
2013-06-28 20:41:00,85.0,62.8,0.00,SW,214,1.3,4.4,47,0.00,,,0.00,WUHU216CR1000,2013-06-29 03:41:00,
2013-06-28 20:46:00,85.0,62.8,0.00,SW,214,1.3,4.4,47,0.00,,,0.00,WUHU216CR1000,2013-06-29 03:46:00,
2013-06-28 20:51:00,85.0,62.8,0.00,SW,214,1.3,4.4,47,0.00,,,0.00,WUHU216CR1000,2013-06-29 03:51:00,
2013-06-28 20:56:00,85.0,62.8,0.00,SW,214,1.3,4.4,47,0.00,,,0.00,WUHU216CR1000,2013-06-29 03:56:00,
2013-06-28 21:01:00,85.0,62.8,0.00,SW,214,1.3,4.4,47,0.00,,,0.00,WUHU216CR1000,2013-06-29 04:01:00,
2013-06-28 21:06:00,75.4,60.2,0.00,SSW,203,1.3,4.4,59,0.00,,,0.00,WUHU216CR1000,2013-06-29 04:06:00,
2013-06-28 21:11:00,75.4,60.2,0.00,SSW,203,1.3,4.4,59,0.00,,,0.00,WUHU216CR1000,2013-06-29 04:11:00,
2013-06-28 21:16:00,75.4,60.2,0.00,SSW,203,1.3,4.4,59,0.00,,,0.00,WUHU216CR1000,2013-06-29 04:16:00,
2013-06-28 21:21:00,75.4,60.2,0.00,SSW,203,1.3,4.4,59,0.00,,,0.00,WUHU216CR1000,2013-06-29 04:21:00,
2013-06-28 21:26:00,75.4,60.2,0.00,SSW,203,1.3,4.4,59,0.00,,,0.00,WUHU216CR1000,2013-06-29 04:26:00,
2013-06-28 21:31:00,75.4,60.2,0.00,SSW,203,1.3,4.4,59,0.00,,,0.00,WUHU216CR1000,2013-06-29 04:31:00,
2013-06-28 21:36:00,75.4,60.2,0.00,SSW,203,1.3,4.4,59,0.00,,,0.00,WUHU216CR1000,2013-06-29 04:36:00,
2013-06-28 21:41:00,75.4,60.2,0.00,SSW,203,1.3,4.4,59,0.00,,,0.00,WUHU216CR1000,2013-06-29 04:41:00,
2013-06-28 21:46:00,75.4,60.2,0.00,SSW,203,1.3,4.4,59,0.00,,,0.00,WUHU216CR1000,2013-06-29 04:46:00,
2013-06-28 21:51:00,75.4,60.2,0.00,SSW,203,1.3,4.4,59,0.00,,,0.00,WUHU216CR1000,2013-06-29 04:51:00,
2013-06-28 21:56:00,75.4,60.2,0.00,SSW,203,1.3,4.4,59,0.00,,,0.00,WUHU216CR1000,2013-06-29 04:56:00,
2013-06-28 22:01:00,75.4,60.2,0.00,SSW,203,1.3,4.4,59,0.00,,,0.00,WUHU216CR1000,2013-06-29 05:01:00,
2013-06-28 22:06:00,71.2,58.3,0.00,SW,216,1.4,5.0,64,0.00,,,0.00,WUHU216CR1000,2013-06-29 05:06:00,
2013-06-28 22:11:00,71.2,58.3,0.00,SW,216,1.4,5.0,64,0.00,,,0.00,WUHU216CR1000,2013-06-29 05:11:00,
2013-06-28 22:16:00,71.2,58.3,0.00,SW,216,1.4,5.0,64,0.00,,,0.00,WUHU216CR1000,2013-06-29 05:16:00,
2013-06-28 22:21:00,71.2,58.3,0.00,SW,216,1.4,5.0,64,0.00,,,0.00,WUHU216CR1000,2013-06-29 05:21:00,
2013-06-28 22:26:00,71.2,58.3,0.00,SW,216,1.4,5.0,64,0.00,,,0.00,WUHU216CR1000,2013-06-29 05:26:00,
2013-06-28 22:31:00,71.2,58.3,0.00,SW,216,1.4,5.0,64,0.00,,,0.00,WUHU216CR1000,2013-06-29 05:31:00,
2013-06-28 22:36:00,71.2,58.3,0.00,SW,216,1.4,5.0,64,0.00,,,0.00,WUHU216CR1000,2013-06-29 05:36:00,
2013-06-28 22:41:00,71.2,58.3,0.00,SW,216,1.4,5.0,64,0.00,,,0.00,WUHU216CR1000,2013-06-29 05:41:00,
2013-06-28 22:46:00,71.2,58.3,0.00,SW,216,1.4,5.0,64,0.00,,,0.00,WUHU216CR1000,2013-06-29 05:46:00,
2013-06-28 22:51:00,71.2,58.3,0.00,SW,216,1.4,5.0,64,0.00,,,0.00,WUHU216CR1000,2013-06-29 05:51:00,
2013-06-28 22:56:00,71.2,58.3,0.00,SW,216,1.4,5.0,64,0.00,,,0.00,WUHU216CR1000,2013-06-29 05:56:00,
2013-06-28 23:01:00,71.2,58.3,0.00,SW,216,1.4,5.0,64,0.00,,,0.00,WUHU216CR1000,2013-06-29 06:01:00,
2013-06-28 23:06:00,67.1,58.9,0.00,South,171,0.6,5.0,75,0.00,,,0.00,WUHU216CR1000,2013-06-29 06:06:00,
2013-06-28 23:11:00,67.1,58.9,0.00,South,171,0.6,4.4,75,0.00,,,0.00,WUHU216CR1000,2013-06-29 06:11:00,
2013-06-28 23:16:00,67.1,58.9,0.00,South,171,0.6,4.4,75,0.00,,,0.00,WUHU216CR1000,2013-06-29 06:16:00,
2013-06-28 23:21:00,67.1,58.9,0.00,South,171,0.6,4.4,75,0.00,,,0.00,WUHU216CR1000,2013-06-29 06:21:00,
2013-06-28 23:26:00,67.1,58.9,0.00,South,171,0.6,4.4,75,0.00,,,0.00,WUHU216CR1000,2013-06-29 06:26:00,
2013-06-28 23:31:00,67.1,58.9,0.00,South,171,0.6,4.4,75,0.00,,,0.00,WUHU216CR1000,2013-06-29 06:31:00,
2013-06-28 23:36:00,67.1,58.9,0.00,South,171,0.6,4.4,75,0.00,,,0.00,WUHU216CR1000,2013-06-29 06:36:00,
2013-06-28 23:41:00,67.1,58.9,0.00,South,171,0.6,4.4,75,0.00,,,0.00,WUHU216CR1000,2013-06-29 06:41:00,
2013-06-28 23:46:00,67.1,58.9,0.00,South,171,0.6,4.4,75,0.00,,,0.00,WUHU216CR1000,2013-06-29 06:46:00,
2013-06-28 23:51:00,67.1,58.9,0.00,South,171,0.6,4.4,75,0.00,,,0.00,WUHU216CR1000,2013-06-29 06:51:00,
2013-06-28 23:56:00,67.1,58.9,0.00,South,171,0.6,4.4,75,0.00,,,0.00,WUHU216CR1000,2013-06-29 06:56:00,